createdAt,value
2018-07-20T00:02:13.964Z,7.30
2018-07-20T00:04:41.695Z,8.60
2018-07-20T00:07:09.272Z,8.60
2018-07-20T00:09:36.696Z,6.73
2018-07-20T00:12:04.184Z,7.70
2018-07-20T00:14:31.498Z,7.13
2018-07-20T00:16:58.872Z,7.80
2018-07-20T00:19:27.189Z,6.63
2018-07-20T00:21:55.083Z,8.50
2018-07-20T00:24:22.568Z,7.23
2018-07-20T00:26:50.083Z,9.30
2018-07-20T00:29:17.711Z,7.03
2018-07-20T00:31:45.043Z,7.03
2018-07-20T00:34:12.404Z,6.60
2018-07-20T00:36:39.730Z,7.17
2018-07-20T00:39:08.411Z,6.30
2018-07-20T00:41:35.782Z,7.00
2018-07-20T00:44:04.590Z,7.90
2018-07-20T00:46:32.209Z,7.13
2018-07-20T00:48:59.641Z,7.27
2018-07-20T00:51:27.167Z,6.77
2018-07-20T00:53:54.908Z,6.30
2018-07-20T00:56:22.367Z,6.77
2018-07-20T00:58:49.766Z,6.43
2018-07-20T01:01:17.293Z,6.40
2018-07-20T01:03:44.606Z,6.30
2018-07-20T01:06:11.976Z,6.67
2018-07-20T01:08:39.312Z,7.40
2018-07-20T01:11:09.683Z,10.27
2018-07-20T01:13:37.162Z,6.87
2018-07-20T01:16:13.505Z,6.27
2018-07-20T01:18:41.976Z,6.77
2018-07-20T01:21:11.006Z,6.20
2018-07-20T01:23:38.503Z,7.43
2018-07-20T01:26:11.197Z,6.20
2018-07-20T01:28:39.016Z,5.87
2018-07-20T01:31:07.411Z,6.47
2018-07-20T01:33:34.965Z,6.20
2018-07-20T01:36:03.340Z,6.63
2018-07-20T01:38:31.131Z,7.00
2018-07-20T01:40:58.793Z,6.47
2018-07-20T01:43:26.360Z,7.53
2018-07-20T01:45:53.933Z,7.00
2018-07-20T01:48:21.292Z,6.53
2018-07-20T01:50:48.664Z,6.00
2018-07-20T01:53:16.576Z,6.90
2018-07-20T01:55:43.931Z,7.20
2018-07-20T01:58:11.293Z,6.53
2018-07-20T02:00:38.628Z,6.40
2018-07-20T02:03:06.982Z,6.27
2018-07-20T02:05:34.734Z,6.50
2018-07-20T02:08:02.223Z,7.00
2018-07-20T02:10:29.619Z,6.60
2018-07-20T02:12:56.992Z,7.00
2018-07-20T02:15:25.163Z,6.90
2018-07-20T02:17:52.467Z,7.73
2018-07-20T02:20:20.005Z,7.30
2018-07-20T02:22:47.380Z,7.37
2018-07-20T02:25:16.594Z,7.47
2018-07-20T02:27:43.998Z,7.33
2018-07-20T02:30:11.338Z,7.20
2018-07-20T02:32:38.934Z,7.20
2018-07-20T02:35:06.765Z,7.50
2018-07-20T02:37:34.596Z,7.13
2018-07-20T02:40:01.969Z,7.50
2018-07-20T02:42:29.538Z,7.47
2018-07-20T02:44:57.037Z,8.17
2018-07-20T02:47:24.363Z,8.57
2018-07-20T02:49:52.000Z,9.00
2018-07-20T02:52:19.322Z,9.00
2018-07-20T02:54:46.803Z,8.27
2018-07-20T02:57:14.166Z,7.77
2018-07-20T02:59:41.620Z,7.80
2018-07-20T03:02:08.947Z,8.70
2018-07-20T03:04:36.328Z,8.50
2018-07-20T03:07:03.800Z,8.43
2018-07-20T03:09:31.239Z,8.93
2018-07-20T03:11:58.658Z,10.13
2018-07-20T03:14:26.214Z,9.90
2018-07-20T03:16:53.516Z,8.90
2018-07-20T03:19:20.853Z,10.87
2018-07-20T03:21:48.216Z,9.63
2018-07-20T03:24:15.566Z,10.70
2018-07-20T03:26:42.890Z,9.37
2018-07-20T03:29:10.220Z,9.40
2018-07-20T03:31:37.530Z,9.73
2018-07-20T03:34:04.965Z,9.73
2018-07-20T03:36:33.380Z,9.57
2018-07-20T03:39:00.706Z,10.70
2018-07-20T03:41:28.060Z,10.67
2018-07-20T03:43:55.352Z,9.77
2018-07-20T03:46:22.700Z,11.00
2018-07-20T03:48:50.011Z,11.43
2018-07-20T03:51:17.375Z,9.97
2018-07-20T03:53:44.752Z,11.37
2018-07-20T03:56:12.089Z,10.33
2018-07-20T03:58:39.792Z,10.80
2018-07-20T04:01:07.115Z,12.83
2018-07-20T04:03:34.535Z,11.27
2018-07-20T04:06:01.848Z,10.37
2018-07-20T04:08:29.152Z,9.97
2018-07-20T04:10:56.474Z,10.80
2018-07-20T04:13:23.774Z,11.37
2018-07-20T04:15:51.171Z,10.97
2018-07-20T04:18:18.836Z,11.27
2018-07-20T04:20:46.242Z,9.43
2018-07-20T04:23:13.649Z,10.93
2018-07-20T04:25:40.995Z,10.90
2018-07-20T04:28:08.351Z,9.40
2018-07-20T04:30:35.959Z,10.57
2018-07-20T04:33:03.261Z,8.90
2018-07-20T04:35:30.571Z,10.20
2018-07-20T04:37:57.886Z,9.10
2018-07-20T04:40:25.258Z,9.77
2018-07-20T04:42:52.640Z,11.27
2018-07-20T04:45:19.929Z,11.10
2018-07-20T04:47:47.298Z,9.30
2018-07-20T04:50:14.625Z,11.17
2018-07-20T04:52:42.313Z,10.53
2018-07-20T04:55:09.682Z,11.70
2018-07-20T04:57:37.064Z,11.50
2018-07-20T05:00:04.736Z,11.93
2018-07-20T05:02:32.077Z,11.43
2018-07-20T05:04:59.422Z,10.53
2018-07-20T05:07:27.129Z,11.30
2018-07-20T05:09:54.465Z,11.60
2018-07-20T05:12:21.909Z,10.57
2018-07-20T05:14:49.354Z,10.07
2018-07-20T05:17:17.629Z,9.50
2018-07-20T05:19:45.090Z,10.40
2018-07-20T05:22:12.519Z,10.33
2018-07-20T05:24:39.920Z,9.87
2018-07-20T05:27:07.364Z,9.50
2018-07-20T05:29:34.798Z,10.27
2018-07-20T05:32:02.521Z,11.20
2018-07-20T05:34:29.990Z,10.53
2018-07-20T05:36:58.295Z,10.23
2018-07-20T05:39:25.623Z,8.67
2018-07-20T05:41:53.039Z,8.60
2018-07-20T05:44:20.393Z,9.20
2018-07-20T05:46:47.729Z,10.30
2018-07-20T05:49:15.942Z,8.10
2018-07-20T05:51:43.400Z,8.40
2018-07-20T05:54:10.720Z,8.83
2018-07-20T05:56:38.078Z,7.73
2018-07-20T05:59:05.441Z,8.60
2018-07-20T06:01:32.768Z,8.53
2018-07-20T06:04:00.125Z,9.53
2018-07-20T06:06:31.433Z,9.90
2018-07-20T06:08:58.808Z,8.57
2018-07-20T06:11:26.116Z,8.10
2018-07-20T06:13:53.497Z,8.20
2018-07-20T06:16:20.834Z,7.60
2018-07-20T06:18:48.268Z,7.50
2018-07-20T06:21:15.634Z,6.77
2018-07-20T06:23:42.971Z,7.70
2018-07-20T06:26:12.181Z,7.60
2018-07-20T06:28:39.510Z,9.13
2018-07-20T06:31:06.827Z,8.50
2018-07-20T06:33:34.140Z,7.83
2018-07-20T06:36:01.527Z,8.53
2018-07-20T06:38:28.828Z,7.43
2018-07-20T06:40:56.533Z,7.90
2018-07-20T06:43:23.895Z,7.67
2018-07-20T06:45:51.226Z,7.17
2018-07-20T06:48:18.619Z,10.97
2018-07-20T06:50:46.115Z,8.10
2018-07-20T06:53:13.491Z,7.03
2018-07-20T06:55:40.930Z,8.23
2018-07-20T06:58:08.286Z,7.20
2018-07-20T07:00:35.633Z,6.50
2018-07-20T07:03:02.986Z,5.57
2018-07-20T07:05:30.301Z,7.90
2018-07-20T07:07:57.689Z,7.03
2018-07-20T07:10:25.030Z,6.13
2018-07-20T07:12:54.288Z,6.37
2018-07-20T07:15:21.698Z,7.93
2018-07-20T07:17:49.190Z,7.80
2018-07-20T07:20:16.895Z,6.10
2018-07-20T07:22:44.301Z,5.90
2018-07-20T07:25:11.694Z,5.20
2018-07-20T07:27:39.355Z,5.87
2018-07-20T07:30:06.787Z,8.50
2018-07-20T07:32:34.260Z,4.80
2018-07-20T07:35:01.796Z,6.03
2018-07-20T07:37:29.283Z,6.83
2018-07-20T07:39:56.799Z,6.70
2018-07-20T07:42:24.175Z,5.70
2018-07-20T07:44:51.920Z,6.80
2018-07-20T07:47:19.972Z,6.30
2018-07-20T07:49:47.420Z,5.20
2018-07-20T07:52:14.935Z,6.73
2018-07-20T07:54:42.460Z,5.60
2018-07-20T07:57:09.930Z,6.93
2018-07-20T07:59:37.330Z,7.30
2018-07-20T08:02:04.728Z,6.20
2018-07-20T08:04:32.656Z,7.07
2018-07-20T08:07:00.231Z,8.77
2018-07-20T08:09:27.809Z,7.83
2018-07-20T08:11:57.023Z,6.13
2018-07-20T08:14:24.583Z,6.27
2018-07-20T08:16:52.342Z,5.50
2018-07-20T08:19:21.725Z,5.33
2018-07-20T08:21:49.349Z,5.87
2018-07-20T08:24:17.037Z,5.07
2018-07-20T08:26:44.520Z,5.57
2018-07-20T08:29:11.960Z,5.60
2018-07-20T08:31:39.317Z,8.23
2018-07-20T08:34:06.657Z,4.70
2018-07-20T08:36:34.290Z,5.33
2018-07-20T08:39:06.061Z,4.87
2018-07-20T08:41:33.420Z,4.50
2018-07-20T08:44:02.508Z,5.43
2018-07-20T08:46:29.858Z,5.30
2018-07-20T08:48:57.257Z,4.03
2018-07-20T08:51:28.131Z,4.10
2018-07-20T08:53:55.560Z,6.60
2018-07-20T08:56:25.172Z,6.50
2018-07-20T08:58:52.573Z,4.67
2018-07-20T09:01:19.941Z,9.07
2018-07-20T09:03:47.379Z,4.60
2018-07-20T09:06:14.875Z,4.90
2018-07-20T09:08:42.345Z,4.30
2018-07-20T09:11:09.819Z,3.77
2018-07-20T09:13:37.664Z,4.80
2018-07-20T09:16:05.070Z,4.43
2018-07-20T09:18:32.601Z,4.10
2018-07-20T09:21:00.072Z,4.63
2018-07-20T09:23:31.377Z,4.57
2018-07-20T09:25:58.851Z,4.53
2018-07-20T09:28:26.229Z,4.37
2018-07-20T09:30:53.607Z,4.10
2018-07-20T09:33:20.965Z,4.13
2018-07-20T09:35:48.353Z,4.07
2018-07-20T09:38:15.738Z,3.50
2018-07-20T09:40:43.138Z,4.50
2018-07-20T09:43:11.601Z,3.60
2018-07-20T09:45:38.987Z,4.50
2018-07-20T09:48:06.407Z,3.90
2018-07-20T09:50:33.838Z,4.60
2018-07-20T09:53:01.225Z,3.53
2018-07-20T09:55:28.595Z,4.27
2018-07-20T09:57:56.180Z,4.17
2018-07-20T10:00:29.140Z,4.93
2018-07-20T10:02:56.636Z,5.80
2018-07-20T10:05:24.112Z,3.80
2018-07-20T10:07:51.651Z,6.33
2018-07-20T10:10:19.027Z,3.50
2018-07-20T10:12:46.495Z,3.63
2018-07-20T10:15:14.706Z,4.00
2018-07-20T10:17:42.123Z,3.73
2018-07-20T10:20:09.472Z,4.30
2018-07-20T10:22:36.835Z,5.20
2018-07-20T10:25:04.482Z,4.47
2018-07-20T10:27:31.823Z,4.10
2018-07-20T10:30:01.039Z,4.03
2018-07-20T10:32:28.429Z,4.10
2018-07-20T10:34:55.839Z,4.00
2018-07-20T10:37:23.370Z,4.23
2018-07-20T10:39:51.667Z,4.47
2018-07-20T10:42:20.442Z,4.00
2018-07-20T10:44:47.776Z,4.80
2018-07-20T10:47:15.792Z,3.87
2018-07-20T10:49:43.150Z,4.30
2018-07-20T10:52:10.508Z,4.17
2018-07-20T10:54:37.821Z,4.37
2018-07-20T10:57:05.208Z,3.57
2018-07-20T10:59:32.601Z,4.07
2018-07-20T11:02:00.015Z,4.15
2018-07-20T11:04:27.442Z,4.60
2018-07-20T11:06:54.818Z,4.97
2018-07-20T11:09:22.273Z,4.07
2018-07-20T11:11:49.729Z,4.28
2018-07-20T11:14:17.140Z,3.98
2018-07-20T11:16:45.831Z,3.58
2018-07-20T11:19:16.007Z,3.65
2018-07-20T11:21:43.341Z,3.50
2018-07-20T11:24:11.148Z,5.62
2018-07-20T11:26:39.385Z,3.55
2018-07-20T11:29:06.857Z,4.67
2018-07-20T11:31:34.271Z,3.92
2018-07-20T11:34:01.691Z,4.25
2018-07-20T11:36:29.964Z,4.23
2018-07-20T11:38:58.205Z,4.17
2018-07-20T11:41:25.617Z,3.47
2018-07-20T11:43:52.980Z,3.97
2018-07-20T11:46:20.600Z,5.03
2018-07-20T11:48:47.980Z,6.10
2018-07-20T11:51:15.461Z,4.67
2018-07-20T11:53:45.765Z,4.70
2018-07-20T11:56:14.268Z,4.53
2018-07-20T11:58:41.894Z,6.63
2018-07-20T12:01:09.309Z,4.60
2018-07-20T12:03:36.726Z,5.20
2018-07-20T12:06:06.294Z,5.03
2018-07-20T12:08:34.018Z,4.67
2018-07-20T12:11:01.430Z,5.73
2018-07-20T12:13:29.629Z,4.03
2018-07-20T12:15:57.029Z,4.10
2018-07-20T12:18:24.533Z,3.77
2018-07-20T12:20:53.836Z,3.97
2018-07-20T12:23:21.296Z,7.90
2018-07-20T12:25:53.350Z,3.53
2018-07-20T12:28:22.326Z,3.57
2018-07-20T12:30:49.710Z,2.77
2018-07-20T12:33:19.056Z,3.13
2018-07-20T12:35:46.458Z,3.80
2018-07-20T12:38:17.638Z,3.60
2018-07-20T12:40:45.143Z,3.27
2018-07-20T12:43:12.549Z,3.63
2018-07-20T12:45:39.945Z,3.60
2018-07-20T12:48:09.297Z,3.70
2018-07-20T12:50:39.488Z,3.73
2018-07-20T12:53:06.888Z,4.40
2018-07-20T12:55:34.662Z,3.50
2018-07-20T12:58:03.223Z,3.90
2018-07-20T13:00:30.664Z,4.63
2018-07-20T13:02:58.041Z,3.60
2018-07-20T13:05:25.446Z,5.10
2018-07-20T13:07:53.620Z,4.97
2018-07-20T13:10:21.491Z,4.20
2018-07-20T13:12:48.831Z,3.83
2018-07-20T13:15:17.080Z,5.50
2018-07-20T13:17:45.523Z,3.80
2018-07-20T13:20:20.720Z,4.73
2018-07-20T13:22:49.736Z,4.00
2018-07-20T13:25:22.323Z,3.93
2018-07-20T13:27:50.104Z,4.30
2018-07-20T13:30:17.424Z,4.70
2018-07-20T13:32:45.794Z,4.37
2018-07-20T13:35:16.016Z,4.70
2018-07-20T13:37:43.404Z,4.70
2018-07-20T13:40:10.778Z,5.43
2018-07-20T13:42:38.124Z,4.07
2018-07-20T13:45:06.196Z,4.50
2018-07-20T13:47:33.581Z,4.10
2018-07-20T13:50:03.943Z,6.13
2018-07-20T13:52:31.596Z,4.60
2018-07-20T13:54:59.812Z,4.00
2018-07-20T13:57:31.975Z,4.13
2018-07-20T13:59:59.381Z,4.13
2018-07-20T14:02:27.885Z,6.33
2018-07-20T14:04:59.237Z,4.67
2018-07-20T14:07:26.585Z,5.23
2018-07-20T14:09:54.942Z,4.33
2018-07-20T14:12:25.242Z,4.30
2018-07-20T14:14:52.641Z,4.47
2018-07-20T14:17:20.056Z,3.97
2018-07-20T14:19:49.141Z,4.00
2018-07-20T14:22:19.436Z,3.70
2018-07-20T14:24:47.490Z,4.07
2018-07-20T14:27:15.006Z,5.00
2018-07-20T14:29:43.356Z,4.90
2018-07-20T14:32:11.785Z,4.57
2018-07-20T14:34:39.179Z,4.40
2018-07-20T14:37:07.667Z,4.73
2018-07-20T14:39:36.968Z,4.83
2018-07-20T14:42:04.396Z,5.50
2018-07-20T14:44:31.757Z,4.10
2018-07-20T14:46:59.153Z,4.50
2018-07-20T14:49:26.582Z,4.73
2018-07-20T14:51:54.840Z,6.13
2018-07-20T14:54:22.202Z,6.50
2018-07-20T14:56:51.581Z,5.67
2018-07-20T14:59:19.430Z,5.47
2018-07-20T15:01:46.860Z,5.20
2018-07-20T15:04:14.143Z,6.03
2018-07-20T15:06:42.581Z,4.20
2018-07-20T15:09:11.714Z,4.60
2018-07-20T15:11:39.176Z,5.87
2018-07-20T15:14:06.534Z,3.93
2018-07-20T15:16:33.885Z,5.90
2018-07-20T15:19:02.277Z,4.77
2018-07-20T15:21:30.002Z,5.17
2018-07-20T15:23:59.445Z,5.30
2018-07-20T15:26:27.421Z,3.90
2018-07-20T15:28:54.933Z,10.90
2018-07-20T15:31:23.285Z,4.70
2018-07-20T15:33:51.418Z,4.93
2018-07-20T15:36:18.719Z,4.90
2018-07-20T15:38:46.384Z,4.87
2018-07-20T15:41:13.683Z,4.10
2018-07-20T15:43:42.635Z,4.70
2018-07-20T15:46:10.433Z,5.57
2018-07-20T15:48:37.752Z,6.47
2018-07-20T15:51:05.132Z,5.30
2018-07-20T15:53:36.250Z,8.97
2018-07-20T15:55:59.988Z,8.57
2018-07-20T15:58:27.414Z,6.40
2018-07-20T16:00:54.817Z,10.47
2018-07-20T16:03:22.155Z,5.90
2018-07-20T16:05:49.574Z,7.40
2018-07-20T16:08:17.110Z,6.63
2018-07-20T16:10:46.591Z,5.20
2018-07-20T16:13:13.970Z,5.93
2018-07-20T16:15:42.302Z,5.80
2018-07-20T16:18:09.761Z,5.40
2018-07-20T16:20:38.279Z,5.63
2018-07-20T16:23:06.646Z,7.80
2018-07-20T16:25:34.616Z,4.60
2018-07-20T16:28:02.250Z,5.17
2018-07-20T16:30:30.544Z,5.20
2018-07-20T16:32:58.001Z,5.60
2018-07-20T16:35:25.358Z,5.43
2018-07-20T16:37:56.485Z,5.10
2018-07-20T16:40:23.884Z,12.23
2018-07-20T16:42:51.192Z,14.30
2018-07-20T16:45:18.662Z,12.93
2018-07-20T16:47:46.985Z,6.03
2018-07-20T16:50:14.325Z,10.70
2018-07-20T16:52:41.746Z,7.60
2018-07-20T16:55:09.120Z,6.23
2018-07-20T16:57:37.732Z,8.10
2018-07-20T17:00:05.780Z,8.53
2018-07-20T17:02:33.199Z,9.07
2018-07-20T17:05:00.741Z,6.00
2018-07-20T17:07:28.106Z,5.77
2018-07-20T17:09:56.470Z,5.43
2018-07-20T17:12:23.841Z,5.20
2018-07-20T17:14:51.319Z,5.30
2018-07-20T17:17:19.793Z,5.90
2018-07-20T17:19:47.177Z,4.77
2018-07-20T17:22:14.587Z,5.50
2018-07-20T17:24:42.052Z,4.40
2018-07-20T17:27:11.377Z,5.27
2018-07-20T17:29:39.452Z,5.10
2018-07-20T17:32:06.868Z,5.03
2018-07-20T17:34:34.237Z,5.07
2018-07-20T17:37:02.568Z,5.13
2018-07-20T17:39:29.945Z,5.30
2018-07-20T17:41:57.274Z,4.53
2018-07-20T17:44:24.643Z,5.50
2018-07-20T17:46:52.775Z,4.80
2018-07-20T17:49:20.252Z,6.07
2018-07-20T17:51:47.607Z,5.23
2018-07-20T17:54:15.846Z,5.77
2018-07-20T17:56:43.252Z,7.83
2018-07-20T17:59:10.651Z,5.40
2018-07-20T18:01:42.029Z,5.70
2018-07-20T18:04:09.617Z,7.63
2018-07-20T18:06:36.915Z,5.63
2018-07-20T18:09:06.909Z,4.97
2018-07-20T18:11:34.252Z,5.77
2018-07-20T18:14:01.636Z,5.10
2018-07-20T18:16:28.961Z,5.73
2018-07-20T18:18:56.396Z,7.53
2018-07-20T18:21:23.770Z,6.07
2018-07-20T18:23:51.164Z,6.40
2018-07-20T18:26:18.600Z,5.43
2018-07-20T18:28:45.979Z,7.67
2018-07-20T18:31:13.306Z,7.67
2018-07-20T18:33:40.733Z,4.83
2018-07-20T18:36:08.150Z,5.23
2018-07-20T18:38:35.479Z,5.70
2018-07-20T18:41:02.930Z,6.30
2018-07-20T18:43:30.265Z,5.00
2018-07-20T18:45:58.105Z,6.17
2018-07-20T18:48:25.399Z,7.50
2018-07-20T18:50:52.862Z,4.80
2018-07-20T18:53:20.242Z,5.60
2018-07-20T18:55:47.579Z,5.03
2018-07-20T18:58:14.962Z,4.70
2018-07-20T19:00:42.291Z,5.67
2018-07-20T19:03:09.765Z,5.33
2018-07-20T19:05:37.141Z,8.03
2018-07-20T19:08:04.574Z,6.50
2018-07-20T19:10:31.920Z,7.10
2018-07-20T19:12:59.281Z,6.67
2018-07-20T19:15:26.956Z,6.67
2018-07-20T19:17:54.291Z,8.43
2018-07-20T19:20:21.593Z,6.00
2018-07-20T19:22:48.979Z,5.77
2018-07-20T19:25:16.346Z,6.30
2018-07-20T19:27:43.801Z,5.83
2018-07-20T19:30:11.142Z,6.23
2018-07-20T19:32:38.499Z,5.97
2018-07-20T19:35:06.207Z,6.03
2018-07-20T19:37:33.568Z,6.27
2018-07-20T19:40:00.859Z,5.87
2018-07-20T19:42:28.241Z,5.23
2018-07-20T19:44:55.570Z,7.10
2018-07-20T19:47:22.941Z,5.13
2018-07-20T19:49:50.301Z,6.30
2018-07-20T19:52:17.790Z,6.57
2018-07-20T19:54:45.403Z,5.83
2018-07-20T19:57:12.799Z,6.57
2018-07-20T19:59:40.124Z,6.37
2018-07-20T20:02:07.606Z,6.23
2018-07-20T20:04:34.989Z,7.40
2018-07-20T20:07:02.414Z,5.07
2018-07-20T20:09:29.735Z,5.77
2018-07-20T20:11:57.818Z,5.77
2018-07-20T20:14:25.239Z,6.87
2018-07-20T20:16:52.603Z,5.23
2018-07-20T20:19:19.949Z,6.10
2018-07-20T20:21:47.321Z,7.57
2018-07-20T20:24:14.738Z,6.80
2018-07-20T20:26:42.673Z,6.20
2018-07-20T20:29:10.022Z,6.43
2018-07-20T20:31:37.638Z,6.10
2018-07-20T20:34:05.213Z,5.60
2018-07-20T20:36:32.621Z,6.50
2018-07-20T20:39:00.031Z,5.87
2018-07-20T20:41:27.404Z,6.37
2018-07-20T20:43:54.738Z,7.10
2018-07-20T20:46:22.714Z,7.37
2018-07-20T20:48:50.405Z,6.63
2018-07-20T20:51:17.752Z,6.23
2018-07-20T20:53:45.124Z,6.27
2018-07-20T20:56:12.634Z,6.10
2018-07-20T20:58:39.994Z,6.40
2018-07-20T21:01:07.575Z,6.23
2018-07-20T21:03:34.901Z,7.77
2018-07-20T21:06:02.174Z,6.60
2018-07-20T21:08:29.627Z,5.87
2018-07-20T21:10:57.059Z,6.87
2018-07-20T21:13:24.612Z,6.50
2018-07-20T21:15:52.056Z,6.97
2018-07-20T21:18:19.510Z,6.60
2018-07-20T21:20:47.779Z,7.20
2018-07-20T21:23:15.249Z,6.30
2018-07-20T21:25:43.324Z,7.13
2018-07-20T21:28:11.215Z,8.90
2018-07-20T21:30:38.611Z,6.27
2018-07-20T21:33:05.920Z,9.53
2018-07-20T21:35:33.249Z,6.70
2018-07-20T21:38:00.592Z,7.00
2018-07-20T21:40:27.946Z,7.43
2018-07-20T21:42:55.335Z,6.30
2018-07-20T21:45:22.636Z,7.60
2018-07-20T21:47:50.045Z,7.50
2018-07-20T21:50:17.366Z,6.10
2018-07-20T21:52:45.113Z,6.87
2018-07-20T21:55:12.543Z,7.53
2018-07-20T21:57:39.879Z,7.80
2018-07-20T22:00:09.557Z,7.13
2018-07-20T22:02:36.930Z,7.50
2018-07-20T22:05:04.223Z,6.90
2018-07-20T22:07:31.552Z,8.50
2018-07-20T22:09:58.854Z,7.30
2018-07-20T22:12:26.213Z,8.30
2018-07-20T22:14:53.588Z,7.37
2018-07-20T22:17:20.906Z,8.10
2018-07-20T22:19:48.224Z,7.47
2018-07-20T22:22:15.555Z,7.13
2018-07-20T22:24:42.859Z,8.73
2018-07-20T22:27:10.206Z,6.87
2018-07-20T22:29:37.499Z,8.23
2018-07-20T22:32:04.906Z,7.77
2018-07-20T22:34:32.225Z,8.70
2018-07-20T22:36:59.641Z,7.60
2018-07-20T22:39:26.973Z,8.17
2018-07-20T22:41:54.324Z,7.47
2018-07-20T22:44:22.088Z,7.43
2018-07-20T22:46:49.390Z,7.43
2018-07-20T22:49:16.686Z,7.57
2018-07-20T22:51:43.982Z,6.83
2018-07-20T22:54:11.365Z,9.03
2018-07-20T22:56:38.700Z,7.60
2018-07-20T22:59:05.989Z,7.87
2018-07-20T23:01:33.304Z,7.67
2018-07-20T23:04:00.699Z,7.70
2018-07-20T23:06:28.016Z,7.97
2018-07-20T23:08:55.290Z,7.23
2018-07-20T23:11:22.647Z,7.80
2018-07-20T23:13:49.974Z,7.97
2018-07-20T23:16:17.354Z,7.20
2018-07-20T23:18:44.727Z,7.17
2018-07-20T23:21:12.388Z,8.27
2018-07-20T23:23:40.086Z,7.33
2018-07-20T23:26:07.414Z,7.67
2018-07-20T23:28:34.798Z,7.63
2018-07-20T23:31:02.142Z,10.40
2018-07-20T23:33:29.505Z,7.73
2018-07-20T23:35:56.819Z,7.73
2018-07-20T23:38:24.176Z,7.50
2018-07-20T23:40:51.602Z,7.77
2018-07-20T23:43:18.927Z,7.13
2018-07-20T23:45:47.028Z,7.43
2018-07-20T23:48:14.369Z,8.07
2018-07-20T23:50:41.727Z,7.13
2018-07-20T23:53:09.064Z,6.83
2018-07-20T23:55:36.439Z,8.23
2018-07-20T23:58:03.854Z,7.17
